sensor_id;sensor_type;location;lat;lon;timestamp;pressure;altitude;pressure_sealevel;temperature;humidity
31121;BME280;17770;45.966;13.632;2024-03-06T00:00:00;100244.50;;;18.30;64.17
31121;BME280;17770;45.966;13.632;2024-03-06T00:02:26;100241.06;;;18.30;64.37
31121;BME280;17770;45.966;13.632;2024-03-06T00:04:52;100243.66;;;18.30;64.11
31121;BME280;17770;45.966;13.632;2024-03-06T00:07:18;100242.84;;;18.29;64.09
31121;BME280;17770;45.966;13.632;2024-03-06T00:09:44;100244.63;;;18.29;64.18
31121;BME280;17770;45.966;13.632;2024-03-06T00:12:10;100242.94;;;18.28;64.20
31121;BME280;17770;45.966;13.632;2024-03-06T00:14:36;100251.59;;;18.28;64.29
31121;BME280;17770;45.966;13.632;2024-03-06T00:17:02;100244.72;;;18.27;64.07
31121;BME280;17770;45.966;13.632;2024-03-06T00:19:30;100244.72;;;18.27;64.11
31121;BME280;17770;45.966;13.632;2024-03-06T00:21:56;100255.25;;;18.26;64.18
31121;BME280;17770;45.966;13.632;2024-03-06T00:24:21;100250.88;;;18.26;64.35
31121;BME280;17770;45.966;13.632;2024-03-06T00:26:48;100259.63;;;18.25;64.26
31121;BME280;17770;45.966;13.632;2024-03-06T00:29:14;100248.38;;;18.25;64.13
31121;BME280;17770;45.966;13.632;2024-03-06T00:31:43;100255.34;;;18.24;64.21
31121;BME280;17770;45.966;13.632;2024-03-06T00:34:13;100255.44;;;18.23;64.23
31121;BME280;17770;45.966;13.632;2024-03-06T00:36:42;100254.59;;;18.22;64.34
31121;BME280;17770;45.966;13.632;2024-03-06T00:39:09;100258.06;;;18.23;64.25
31121;BME280;17770;45.966;13.632;2024-03-06T00:41:35;100254.59;;;18.22;64.18
31121;BME280;17770;45.966;13.632;2024-03-06T00:44:01;100252.00;;;18.22;64.10
31121;BME280;17770;45.966;13.632;2024-03-06T00:46:27;100256.38;;;18.21;64.06
31121;BME280;17770;45.966;13.632;2024-03-06T00:48:53;100259.81;;;18.22;64.11
31121;BME280;17770;45.966;13.632;2024-03-06T00:51:19;100257.31;;;18.20;64.20
31121;BME280;17770;45.966;13.632;2024-03-06T00:53:45;100260.88;;;18.19;64.19
31121;BME280;17770;45.966;13.632;2024-03-06T00:56:11;100253.03;;;18.19;64.02
31121;BME280;17770;45.966;13.632;2024-03-06T00:58:37;100253.94;;;18.18;64.21
31121;BME280;17770;45.966;13.632;2024-03-06T01:01:03;100256.56;;;18.18;64.27
31121;BME280;17770;45.966;13.632;2024-03-06T01:03:29;100254.81;;;18.19;64.23
31121;BME280;17770;45.966;13.632;2024-03-06T01:05:55;100258.31;;;18.18;64.15
31121;BME280;17770;45.966;13.632;2024-03-06T01:08:24;100260.94;;;18.18;64.11
31121;BME280;17770;45.966;13.632;2024-03-06T01:10:50;100261.78;;;18.18;63.88
31121;BME280;17770;45.966;13.632;2024-03-06T01:13:17;100264.50;;;18.17;64.03
31121;BME280;17770;45.966;13.632;2024-03-06T01:15:43;100261.03;;;18.16;64.12
31121;BME280;17770;45.966;13.632;2024-03-06T01:18:09;100270.66;;;18.16;64.07
31121;BME280;17770;45.966;13.632;2024-03-06T01:20:35;100270.66;;;18.16;63.95
31121;BME280;17770;45.966;13.632;2024-03-06T01:23:01;100261.13;;;18.15;64.12
31121;BME280;17770;45.966;13.632;2024-03-06T01:25:27;100264.59;;;18.15;64.14
31121;BME280;17770;45.966;13.632;2024-03-06T01:27:53;100260.31;;;18.14;64.01
31121;BME280;17770;45.966;13.632;2024-03-06T01:30:19;100261.13;;;18.15;64.17
31121;BME280;17770;45.966;13.632;2024-03-06T01:32:45;100256.88;;;18.14;64.20
31121;BME280;17770;45.966;13.632;2024-03-06T01:35:11;100262.94;;;18.14;63.96
31121;BME280;17770;45.966;13.632;2024-03-06T01:37:37;100262.09;;;18.14;64.01
31121;BME280;17770;45.966;13.632;2024-03-06T01:40:04;100259.56;;;18.12;64.24
31121;BME280;17770;45.966;13.632;2024-03-06T01:42:30;100261.31;;;18.12;64.20
31121;BME280;17770;45.966;13.632;2024-03-06T01:44:56;100259.56;;;18.12;63.97
31121;BME280;17770;45.966;13.632;2024-03-06T01:47:22;100265.69;;;18.11;64.16
31121;BME280;17770;45.966;13.632;2024-03-06T01:49:48;100268.31;;;18.11;64.22
31121;BME280;17770;45.966;13.632;2024-03-06T01:52:14;100264.13;;;18.09;64.05
31121;BME280;17770;45.966;13.632;2024-03-06T01:54:42;100274.56;;;18.09;64.16
31121;BME280;17770;45.966;13.632;2024-03-06T01:57:08;100268.50;;;18.08;64.18
31121;BME280;17770;45.966;13.632;2024-03-06T01:59:35;100271.97;;;18.09;64.17
31121;BME280;17770;45.966;13.632;2024-03-06T02:02:01;100275.41;;;18.09;64.17
31121;BME280;17770;45.966;13.632;2024-03-06T02:04:28;100271.97;;;18.09;64.13
31121;BME280;17770;45.966;13.632;2024-03-06T02:06:54;100270.31;;;18.08;64.32
31121;BME280;17770;45.966;13.632;2024-03-06T02:09:20;100275.59;;;18.06;64.02
31121;BME280;17770;45.966;13.632;2024-03-06T02:11:46;100275.59;;;18.06;64.19
31121;BME280;17770;45.966;13.632;2024-03-06T02:14:12;100272.91;;;18.08;64.21
31121;BME280;17770;45.966;13.632;2024-03-06T02:16:39;100284.16;;;18.08;64.02
31121;BME280;17770;45.966;13.632;2024-03-06T02:19:04;100287.72;;;18.07;63.85
31121;BME280;17770;45.966;13.632;2024-03-06T02:21:30;100281.66;;;18.07;64.10
31121;BME280;17770;45.966;13.632;2024-03-06T02:23:56;100276.44;;;18.07;64.01
31121;BME280;17770;45.966;13.632;2024-03-06T02:26:22;100280.81;;;18.06;64.05
31121;BME280;17770;45.966;13.632;2024-03-06T02:28:49;100279.03;;;18.07;64.07
31121;BME280;17770;45.966;13.632;2024-03-06T02:31:18;100282.59;;;18.06;64.01
31121;BME280;17770;45.966;13.632;2024-03-06T02:33:44;100288.72;;;18.05;64.00
31121;BME280;17770;45.966;13.632;2024-03-06T02:36:10;100293.94;;;18.05;63.76
31121;BME280;17770;45.966;13.632;2024-03-06T02:38:36;100295.75;;;18.04;64.00
31121;BME280;17770;45.966;13.632;2024-03-06T02:41:02;100293.13;;;18.04;64.13
31121;BME280;17770;45.966;13.632;2024-03-06T02:43:28;100291.34;;;18.05;63.92
31121;BME280;17770;45.966;13.632;2024-03-06T02:45:54;100279.25;;;18.04;63.78
31121;BME280;17770;45.966;13.632;2024-03-06T02:48:20;100285.31;;;18.04;63.90
31121;BME280;17770;45.966;13.632;2024-03-06T02:50:46;100281.94;;;18.02;63.99
31121;BME280;17770;45.966;13.632;2024-03-06T02:53:12;100276.72;;;18.02;63.94
31121;BME280;17770;45.966;13.632;2024-03-06T02:55:37;100278.50;;;18.02;64.08
31121;BME280;17770;45.966;13.632;2024-03-06T02:58:03;100283.81;;;18.00;64.03
31121;BME280;17770;45.966;13.632;2024-03-06T03:00:29;100280.34;;;18.00;64.23
31121;BME280;17770;45.966;13.632;2024-03-06T03:02:57;100273.38;;;18.00;64.19
31121;BME280;17770;45.966;13.632;2024-03-06T03:05:23;100274.31;;;17.99;64.18
31121;BME280;17770;45.966;13.632;2024-03-06T03:07:49;100281.38;;;17.97;64.25
31121;BME280;17770;45.966;13.632;2024-03-06T03:10:15;100281.38;;;17.97;64.29
31121;BME280;17770;45.966;13.632;2024-03-06T03:12:42;100280.53;;;17.97;64.01
31121;BME280;17770;45.966;13.632;2024-03-06T03:15:08;100276.16;;;17.97;64.14
31121;BME280;17770;45.966;13.632;2024-03-06T03:17:34;100274.41;;;17.98;64.09
31121;BME280;17770;45.966;13.632;2024-03-06T03:20:00;100273.47;;;17.99;63.92
31121;BME280;17770;45.966;13.632;2024-03-06T03:22:26;100271.03;;;17.96;63.99
31121;BME280;17770;45.966;13.632;2024-03-06T03:24:52;100264.06;;;17.96;64.00
31121;BME280;17770;45.966;13.632;2024-03-06T03:27:17;100267.50;;;17.97;64.17
31121;BME280;17770;45.966;13.632;2024-03-06T03:29:43;100257.81;;;17.99;64.26
31121;BME280;17770;45.966;13.632;2024-03-06T03:32:09;100262.19;;;17.98;63.79
31121;BME280;17770;45.966;13.632;2024-03-06T03:34:35;100261.34;;;17.98;63.89
31121;BME280;17770;45.966;13.632;2024-03-06T03:37:01;100261.34;;;17.98;63.97
31121;BME280;17770;45.966;13.632;2024-03-06T03:39:27;100262.28;;;17.97;64.09
31121;BME280;17770;45.966;13.632;2024-03-06T03:41:53;100263.13;;;17.97;63.65
31121;BME280;17770;45.966;13.632;2024-03-06T03:44:19;100262.28;;;17.97;63.95
31121;BME280;17770;45.966;13.632;2024-03-06T03:46:45;100254.44;;;17.97;63.85
31121;BME280;17770;45.966;13.632;2024-03-06T03:49:11;100259.66;;;17.97;63.74
31121;BME280;17770;45.966;13.632;2024-03-06T03:51:37;100267.50;;;17.97;63.98
31121;BME280;17770;45.966;13.632;2024-03-06T03:54:03;100267.50;;;17.97;63.82
31121;BME280;17770;45.966;13.632;2024-03-06T03:56:30;100272.72;;;17.97;63.83
31121;BME280;17770;45.966;13.632;2024-03-06T03:58:59;100275.31;;;17.97;63.93
31121;BME280;17770;45.966;13.632;2024-03-06T04:01:25;100283.25;;;17.95;63.94
31121;BME280;17770;45.966;13.632;2024-03-06T04:03:51;100296.28;;;17.95;63.91
31121;BME280;17770;45.966;13.632;2024-03-06T04:06:17;100298.06;;;17.95;63.95
31121;BME280;17770;45.966;13.632;2024-03-06T04:08:44;100293.88;;;17.92;64.10
31121;BME280;17770;45.966;13.632;2024-03-06T04:11:10;100304.31;;;17.92;64.05
31121;BME280;17770;45.966;13.632;2024-03-06T04:13:37;100307.66;;;17.94;64.10
31121;BME280;17770;45.966;13.632;2024-03-06T04:16:03;100308.59;;;17.93;63.91
31121;BME280;17770;45.966;13.632;2024-03-06T04:18:29;100305.16;;;17.93;64.01
31121;BME280;17770;45.966;13.632;2024-03-06T04:21:02;100300.84;;;17.92;64.19
31121;BME280;17770;45.966;13.632;2024-03-06T04:23:29;100296.47;;;17.92;63.83
31121;BME280;17770;45.966;13.632;2024-03-06T04:25:55;100304.31;;;17.92;63.96
31121;BME280;17770;45.966;13.632;2024-03-06T04:28:21;100297.44;;;17.91;63.96
31121;BME280;17770;45.966;13.632;2024-03-06T04:30:47;100293.97;;;17.91;64.08
31121;BME280;17770;45.966;13.632;2024-03-06T04:33:13;100298.34;;;17.90;64.10
31121;BME280;17770;45.966;13.632;2024-03-06T04:35:40;100294.06;;;17.89;63.90
31121;BME280;17770;45.966;13.632;2024-03-06T04:38:07;100296.66;;;17.89;63.68
31121;BME280;17770;45.966;13.632;2024-03-06T04:40:33;100293.22;;;17.89;63.92
31121;BME280;17770;45.966;13.632;2024-03-06T04:43:00;100305.31;;;17.90;63.78
31121;BME280;17770;45.966;13.632;2024-03-06T04:45:26;100299.28;;;17.89;64.03
31121;BME280;17770;45.966;13.632;2024-03-06T04:47:52;100299.28;;;17.89;64.14
31121;BME280;17770;45.966;13.632;2024-03-06T04:50:17;100299.28;;;17.89;63.97
31121;BME280;17770;45.966;13.632;2024-03-06T04:52:44;100290.69;;;17.87;64.11
31121;BME280;17770;45.966;13.632;2024-03-06T04:55:12;100297.59;;;17.88;64.13
31121;BME280;17770;45.966;13.632;2024-03-06T04:57:41;100302.81;;;17.88;64.01
31121;BME280;17770;45.966;13.632;2024-03-06T05:00:08;100302.81;;;17.88;64.08
31121;BME280;17770;45.966;13.632;2024-03-06T05:02:34;100308.13;;;17.87;63.94
31121;BME280;17770;45.966;13.632;2024-03-06T05:05:01;100304.69;;;17.86;64.16
31121;BME280;17770;45.966;13.632;2024-03-06T05:07:28;100308.03;;;17.88;63.99
31121;BME280;17770;45.966;13.632;2024-03-06T05:09:54;100313.25;;;17.88;63.71
31121;BME280;17770;45.966;13.632;2024-03-06T05:12:20;100327.22;;;17.87;63.78
31121;BME280;17770;45.966;13.632;2024-03-06T05:14:46;100332.53;;;17.86;64.08
31121;BME280;17770;45.966;13.632;2024-03-06T05:17:11;100333.47;;;17.85;64.15
31121;BME280;17770;45.966;13.632;2024-03-06T05:19:37;100341.22;;;17.86;63.85
31121;BME280;17770;45.966;13.632;2024-03-06T05:22:03;100344.75;;;17.85;64.13
31121;BME280;17770;45.966;13.632;2024-03-06T05:24:31;100347.34;;;17.85;63.87
31121;BME280;17770;45.966;13.632;2024-03-06T05:26:57;100364.78;;;17.85;63.79
31121;BME280;17770;45.966;13.632;2024-03-06T05:29:22;100370.81;;;17.85;63.71
31121;BME280;17770;45.966;13.632;2024-03-06T05:31:48;100369.06;;;17.86;63.78
31121;BME280;17770;45.966;13.632;2024-03-06T05:34:14;100373.44;;;17.85;63.84
31121;BME280;17770;45.966;13.632;2024-03-06T05:36:40;100375.22;;;17.85;63.97
31121;BME280;17770;45.966;13.632;2024-03-06T05:39:06;100382.22;;;17.84;63.93
31121;BME280;17770;45.966;13.632;2024-03-06T05:41:41;100380.44;;;17.85;63.91
31121;BME280;17770;45.966;13.632;2024-03-06T05:44:07;100381.34;;;17.84;63.89
31121;BME280;17770;45.966;13.632;2024-03-06T05:46:33;100386.56;;;17.84;63.84
31121;BME280;17770;45.966;13.632;2024-03-06T05:48:59;100397.00;;;17.84;64.05
31121;BME280;17770;45.966;13.632;2024-03-06T05:51:26;100400.56;;;17.83;63.80
31121;BME280;17770;45.966;13.632;2024-03-06T05:53:53;100401.38;;;17.83;63.92
31121;BME280;17770;45.966;13.632;2024-03-06T05:56:19;100392.81;;;17.81;63.84
31121;BME280;17770;45.966;13.632;2024-03-06T05:58:45;100402.41;;;17.81;64.02
31121;BME280;17770;45.966;13.632;2024-03-06T06:01:15;100411.00;;;17.83;63.90
31121;BME280;17770;45.966;13.632;2024-03-06T06:03:44;100411.09;;;17.81;63.95
31121;BME280;17770;45.966;13.632;2024-03-06T06:06:10;100411.19;;;17.80;64.01
31121;BME280;17770;45.966;13.632;2024-03-06T06:08:36;100406.69;;;17.82;63.79
31121;BME280;17770;45.966;13.632;2024-03-06T06:11:02;100407.63;;;17.81;63.81
31121;BME280;17770;45.966;13.632;2024-03-06T06:13:29;100405.03;;;17.81;64.06
31121;BME280;17770;45.966;13.632;2024-03-06T06:15:58;100416.31;;;17.81;63.74
31121;BME280;17770;45.966;13.632;2024-03-06T06:18:24;100412.19;;;17.77;64.03
31121;BME280;17770;45.966;13.632;2024-03-06T06:20:50;100425.13;;;17.79;63.81
31121;BME280;17770;45.966;13.632;2024-03-06T06:23:16;100423.38;;;17.79;63.82
31121;BME280;17770;45.966;13.632;2024-03-06T06:25:41;100436.41;;;17.79;63.77
31121;BME280;17770;45.966;13.632;2024-03-06T06:28:07;100439.88;;;17.80;63.88
31121;BME280;17770;45.966;13.632;2024-03-06T06:30:36;100433.91;;;17.78;63.93
31121;BME280;17770;45.966;13.632;2024-03-06T06:33:01;100445.16;;;17.78;63.97
31121;BME280;17770;45.966;13.632;2024-03-06T06:35:28;100451.22;;;17.79;63.94
31121;BME280;17770;45.966;13.632;2024-03-06T06:37:54;100449.47;;;17.79;63.82
31121;BME280;17770;45.966;13.632;2024-03-06T06:40:19;100461.75;;;17.77;63.81
31121;BME280;17770;45.966;13.632;2024-03-06T06:42:47;100455.69;;;17.77;64.14
31121;BME280;17770;45.966;13.632;2024-03-06T06:45:18;100458.28;;;17.77;63.96
31121;BME280;17770;45.966;13.632;2024-03-06T06:47:44;100453.06;;;17.77;63.95
31121;BME280;17770;45.966;13.632;2024-03-06T06:50:10;100453.06;;;17.77;63.77
31121;BME280;17770;45.966;13.632;2024-03-06T06:52:37;100457.47;;;17.76;64.16
31121;BME280;17770;45.966;13.632;2024-03-06T06:55:03;100447.13;;;17.75;63.89
31121;BME280;17770;45.966;13.632;2024-03-06T06:57:30;100450.56;;;17.75;64.06
31121;BME280;17770;45.966;13.632;2024-03-06T06:59:56;100443.56;;;17.76;64.10
31121;BME280;17770;45.966;13.632;2024-03-06T07:02:22;100442.63;;;17.77;63.76
31121;BME280;17770;45.966;13.632;2024-03-06T07:04:48;100440.97;;;17.76;63.93
31121;BME280;17770;45.966;13.632;2024-03-06T07:07:14;100441.91;;;17.75;63.83
31121;BME280;17770;45.966;13.632;2024-03-06T07:09:40;100443.56;;;17.76;63.92
31121;BME280;17770;45.966;13.632;2024-03-06T07:12:06;100434.09;;;17.75;63.97
31121;BME280;17770;45.966;13.632;2024-03-06T07:14:33;100426.31;;;17.73;63.92
31121;BME280;17770;45.966;13.632;2024-03-06T07:16:59;100428.03;;;17.74;63.77
31121;BME280;17770;45.966;13.632;2024-03-06T07:19:25;100415.88;;;17.73;64.04
31121;BME280;17770;45.966;13.632;2024-03-06T07:21:50;100413.28;;;17.73;63.83
31121;BME280;17770;45.966;13.632;2024-03-06T07:24:17;100409.84;;;17.73;64.10
31121;BME280;17770;45.966;13.632;2024-03-06T07:26:43;100412.47;;;17.73;63.86
31121;BME280;17770;45.966;13.632;2024-03-06T07:29:09;100419.44;;;17.72;63.84
31121;BME280;17770;45.966;13.632;2024-03-06T07:31:38;100416.81;;;17.72;64.22
31121;BME280;17770;45.966;13.632;2024-03-06T07:34:06;100421.09;;;17.73;64.26
31121;BME280;17770;45.966;13.632;2024-03-06T07:36:36;100430.81;;;17.71;64.52
31121;BME280;17770;45.966;13.632;2024-03-06T07:39:02;100421.28;;;17.70;64.20
31121;BME280;17770;45.966;13.632;2024-03-06T07:41:28;100429.19;;;17.69;64.45
31121;BME280;17770;45.966;13.632;2024-03-06T07:43:54;100430.91;;;17.70;64.27
31121;BME280;17770;45.966;13.632;2024-03-06T07:46:20;100431.00;;;17.68;64.53
31121;BME280;17770;45.966;13.632;2024-03-06T07:48:46;100444.03;;;17.68;64.62
31121;BME280;17770;45.966;13.632;2024-03-06T07:51:12;100444.84;;;17.69;64.29
31121;BME280;17770;45.966;13.632;2024-03-06T07:53:39;100444.84;;;17.69;64.38
31121;BME280;17770;45.966;13.632;2024-03-06T07:56:04;100451.00;;;17.68;64.50
31121;BME280;17770;45.966;13.632;2024-03-06T07:58:30;100445.78;;;17.68;64.25
31121;BME280;17770;45.966;13.632;2024-03-06T08:00:56;100452.69;;;17.69;64.30
31121;BME280;17770;45.966;13.632;2024-03-06T08:03:23;100460.50;;;17.69;64.33
31121;BME280;17770;45.966;13.632;2024-03-06T08:05:50;100468.31;;;17.69;64.32
31121;BME280;17770;45.966;13.632;2024-03-06T08:08:16;100472.72;;;17.68;64.44
31121;BME280;17770;45.966;13.632;2024-03-06T08:10:42;100479.69;;;17.68;64.41
31121;BME280;17770;45.966;13.632;2024-03-06T08:13:10;100482.31;;;17.68;64.34
31121;BME280;17770;45.966;13.632;2024-03-06T08:15:36;100487.63;;;17.66;64.43
31121;BME280;17770;45.966;13.632;2024-03-06T08:18:02;100491.03;;;17.67;64.59
31121;BME280;17770;45.966;13.632;2024-03-06T08:20:31;100499.72;;;17.67;64.53
31121;BME280;17770;45.966;13.632;2024-03-06T08:22:56;100499.72;;;17.67;64.26
31121;BME280;17770;45.966;13.632;2024-03-06T08:25:22;100496.25;;;17.67;64.57
31121;BME280;17770;45.966;13.632;2024-03-06T08:27:48;100499.72;;;17.67;64.44
31121;BME280;17770;45.966;13.632;2024-03-06T08:30:14;100499.72;;;17.67;64.31
31121;BME280;17770;45.966;13.632;2024-03-06T08:32:40;100505.97;;;17.65;64.48
31121;BME280;17770;45.966;13.632;2024-03-06T08:35:08;100511.91;;;17.67;64.26
31121;BME280;17770;45.966;13.632;2024-03-06T08:37:37;100519.72;;;17.67;64.33
31121;BME280;17770;45.966;13.632;2024-03-06T08:40:04;100515.47;;;17.66;64.22
31121;BME280;17770;45.966;13.632;2024-03-06T08:42:30;100517.22;;;17.65;64.61
31121;BME280;17770;45.966;13.632;2024-03-06T08:44:56;100522.44;;;17.65;64.35
31121;BME280;17770;45.966;13.632;2024-03-06T08:47:22;100530.25;;;17.65;64.42
31121;BME280;17770;45.966;13.632;2024-03-06T08:49:48;100526.75;;;17.66;64.48
31121;BME280;17770;45.966;13.632;2024-03-06T08:52:14;100528.59;;;17.64;64.27
31121;BME280;17770;45.966;13.632;2024-03-06T08:54:40;100528.50;;;17.66;64.42
31121;BME280;17770;45.966;13.632;2024-03-06T08:57:07;100534.66;;;17.65;64.29
31121;BME280;17770;45.966;13.632;2024-03-06T08:59:34;100543.28;;;17.65;64.45
31121;BME280;17770;45.966;13.632;2024-03-06T09:02:11;100538.09;;;17.65;64.28
31121;BME280;17770;45.966;13.632;2024-03-06T09:04:37;100556.44;;;17.64;64.15
31121;BME280;17770;45.966;13.632;2024-03-06T09:07:03;100553.91;;;17.62;64.40
31121;BME280;17770;45.966;13.632;2024-03-06T09:09:29;100546.94;;;17.63;64.36
31121;BME280;17770;45.966;13.632;2024-03-06T09:11:55;100551.22;;;17.64;64.34
31121;BME280;17770;45.966;13.632;2024-03-06T09:14:21;100548.59;;;17.64;64.48
31121;BME280;17770;45.966;13.632;2024-03-06T09:16:48;100546.94;;;17.63;64.10
31121;BME280;17770;45.966;13.632;2024-03-06T09:19:14;100550.38;;;17.63;64.39
31121;BME280;17770;45.966;13.632;2024-03-06T09:21:40;100546.94;;;17.63;64.28
31121;BME280;17770;45.966;13.632;2024-03-06T09:24:06;100549.53;;;17.63;64.60
31121;BME280;17770;45.966;13.632;2024-03-06T09:26:32;100538.25;;;17.62;64.48
31121;BME280;17770;45.966;13.632;2024-03-06T09:28:57;100543.47;;;17.62;64.65
31121;BME280;17770;45.966;13.632;2024-03-06T09:31:23;100555.66;;;17.62;64.27
31121;BME280;17770;45.966;13.632;2024-03-06T09:33:50;100565.28;;;17.61;64.39
31121;BME280;17770;45.966;13.632;2024-03-06T09:36:16;100568.69;;;17.62;64.62
31121;BME280;17770;45.966;13.632;2024-03-06T09:38:42;100571.31;;;17.62;64.45
31121;BME280;17770;45.966;13.632;2024-03-06T09:41:08;100561.72;;;17.62;64.31
31121;BME280;17770;45.966;13.632;2024-03-06T09:43:34;100545.22;;;17.62;64.31
31121;BME280;17770;45.966;13.632;2024-03-06T09:46:00;100546.94;;;17.63;64.38
31121;BME280;17770;45.966;13.632;2024-03-06T09:48:28;100545.19;;;17.63;64.30
31121;BME280;17770;45.966;13.632;2024-03-06T09:50:57;100546.94;;;17.63;64.29
31121;BME280;17770;45.966;13.632;2024-03-06T09:53:23;100542.56;;;17.63;64.26
31121;BME280;17770;45.966;13.632;2024-03-06T09:55:49;100535.56;;;17.64;64.42
31121;BME280;17770;45.966;13.632;2024-03-06T09:58:16;100533.88;;;17.63;64.12
31121;BME280;17770;45.966;13.632;2024-03-06T10:00:42;100528.69;;;17.63;64.37
31121;BME280;17770;45.966;13.632;2024-03-06T10:03:09;100526.97;;;17.62;64.27
31121;BME280;17770;45.966;13.632;2024-03-06T10:05:37;100525.31;;;17.61;64.37
31121;BME280;17770;45.966;13.632;2024-03-06T10:08:04;100529.53;;;17.63;64.37
31121;BME280;17770;45.966;13.632;2024-03-06T10:10:30;100523.47;;;17.63;64.21
31121;BME280;17770;45.966;13.632;2024-03-06T10:12:56;100520.75;;;17.64;64.37
31121;BME280;17770;45.966;13.632;2024-03-06T10:15:23;100523.38;;;17.64;64.33
31121;BME280;17770;45.966;13.632;2024-03-06T10:17:49;100523.47;;;17.63;64.28
31121;BME280;17770;45.966;13.632;2024-03-06T10:20:22;100521.69;;;17.63;64.47
31121;BME280;17770;45.966;13.632;2024-03-06T10:22:51;100523.47;;;17.63;64.45
31121;BME280;17770;45.966;13.632;2024-03-06T10:25:18;100520.00;;;17.62;64.49
31121;BME280;17770;45.966;13.632;2024-03-06T10:27:44;100522.53;;;17.64;64.03
31121;BME280;17770;45.966;13.632;2024-03-06T10:30:10;100526.06;;;17.63;64.27
31121;BME280;17770;45.966;13.632;2024-03-06T10:32:39;100527.75;;;17.64;64.48
31121;BME280;17770;45.966;13.632;2024-03-06T10:35:05;100521.69;;;17.63;64.20
31121;BME280;17770;45.966;13.632;2024-03-06T10:37:34;100520.00;;;17.62;64.31
31121;BME280;17770;45.966;13.632;2024-03-06T10:40:02;100518.25;;;17.63;64.28
31121;BME280;17770;45.966;13.632;2024-03-06T10:42:31;100525.13;;;17.64;64.10
31121;BME280;17770;45.966;13.632;2024-03-06T10:44:58;100520.00;;;17.62;64.32
31121;BME280;17770;45.966;13.632;2024-03-06T10:47:27;100522.59;;;17.62;64.13
31121;BME280;17770;45.966;13.632;2024-03-06T10:49:53;100521.75;;;17.62;63.88
31121;BME280;17770;45.966;13.632;2024-03-06T10:52:19;100520.00;;;17.62;64.10
31121;BME280;17770;45.966;13.632;2024-03-06T10:54:46;100522.53;;;17.64;63.89
31121;BME280;17770;45.966;13.632;2024-03-06T10:57:13;100518.25;;;17.63;63.92
31121;BME280;17770;45.966;13.632;2024-03-06T10:59:40;100519.09;;;17.63;64.08
31121;BME280;17770;45.966;13.632;2024-03-06T11:02:07;100519.16;;;17.62;63.96
31121;BME280;17770;45.966;13.632;2024-03-06T11:04:34;100523.47;;;17.63;64.27
31121;BME280;17770;45.966;13.632;2024-03-06T11:07:02;100519.09;;;17.63;63.89
31121;BME280;17770;45.966;13.632;2024-03-06T11:09:35;100527.81;;;17.62;64.14
31121;BME280;17770;45.966;13.632;2024-03-06T11:12:01;100530.34;;;17.64;63.84
31121;BME280;17770;45.966;13.632;2024-03-06T11:14:29;100534.78;;;17.62;63.83
31121;BME280;17770;45.966;13.632;2024-03-06T11:19:22;100533.88;;;17.63;64.12
31121;BME280;17770;45.966;13.632;2024-03-06T11:21:48;100529.53;;;17.63;64.09
31121;BME280;17770;45.966;13.632;2024-03-06T11:24:14;100526.91;;;17.63;64.04
31121;BME280;17770;45.966;13.632;2024-03-06T11:26:48;100528.59;;;17.64;63.89
31121;BME280;17770;45.966;13.632;2024-03-06T11:29:17;100514.69;;;17.64;63.88
31121;BME280;17770;45.966;13.632;2024-03-06T11:31:59;100516.47;;;17.63;63.83
31121;BME280;17770;45.966;13.632;2024-03-06T11:34:26;100510.25;;;17.66;63.96
31121;BME280;17770;45.966;13.632;2024-03-06T11:36:58;100504.16;;;17.65;63.79
31121;BME280;17770;45.966;13.632;2024-03-06T11:39:28;100505.03;;;17.66;63.98
31121;BME280;17770;45.966;13.632;2024-03-06T11:41:55;100500.75;;;17.65;64.12
31121;BME280;17770;45.966;13.632;2024-03-06T11:44:21;100498.13;;;17.65;64.09
31121;BME280;17770;45.966;13.632;2024-03-06T11:46:49;100496.34;;;17.65;63.77
31121;BME280;17770;45.966;13.632;2024-03-06T11:49:21;100494.59;;;17.66;64.10
31121;BME280;17770;45.966;13.632;2024-03-06T11:51:50;100486.75;;;17.66;63.93
31121;BME280;17770;45.966;13.632;2024-03-06T11:54:16;100489.38;;;17.66;64.03
31121;BME280;17770;45.966;13.632;2024-03-06T11:56:44;100478.09;;;17.65;64.06
31121;BME280;17770;45.966;13.632;2024-03-06T11:59:10;100485.09;;;17.65;63.99
31121;BME280;17770;45.966;13.632;2024-03-06T12:01:37;100488.59;;;17.64;64.05
31121;BME280;17770;45.966;13.632;2024-03-06T12:04:03;100476.50;;;17.63;63.97
31121;BME280;17770;45.966;13.632;2024-03-06T12:06:31;100474.75;;;17.63;64.04
31121;BME280;17770;45.966;13.632;2024-03-06T12:08:57;100479.03;;;17.64;64.17
31121;BME280;17770;45.966;13.632;2024-03-06T12:11:24;100472.97;;;17.64;64.11
31121;BME280;17770;45.966;13.632;2024-03-06T12:13:51;100466.94;;;17.63;64.12
31121;BME280;17770;45.966;13.632;2024-03-06T12:16:17;100469.44;;;17.65;63.86
31121;BME280;17770;45.966;13.632;2024-03-06T12:18:43;100466.84;;;17.65;64.14
31121;BME280;17770;45.966;13.632;2024-03-06T12:21:12;100467.66;;;17.65;63.87
31121;BME280;17770;45.966;13.632;2024-03-06T12:23:41;100465.06;;;17.65;63.94
31121;BME280;17770;45.966;13.632;2024-03-06T12:26:07;100472.06;;;17.65;63.89
31121;BME280;17770;45.966;13.632;2024-03-06T12:28:36;100465.13;;;17.64;63.92
31121;BME280;17770;45.966;13.632;2024-03-06T12:31:03;100459.84;;;17.65;64.13
31121;BME280;17770;45.966;13.632;2024-03-06T12:33:29;100457.22;;;17.65;64.05
31121;BME280;17770;45.966;13.632;2024-03-06T12:36:04;100457.22;;;17.65;64.06
31121;BME280;17770;45.966;13.632;2024-03-06T12:38:31;100453.78;;;17.65;63.92